createdAt,value
2022-09-16T08:23:01.939Z,100.00
2022-09-16T08:25:05.006Z,100.00
2022-09-16T08:27:07.948Z,100.00
2022-09-16T08:53:44.739Z,100.00
2022-09-16T08:55:50.271Z,100.00
2022-09-16T08:57:59.802Z,100.00
2022-09-16T09:00:07.870Z,100.00
2022-09-16T09:02:35.336Z,100.00
2022-09-16T09:04:38.027Z,100.00
2022-09-16T09:07:17.790Z,100.00
2022-09-16T09:09:46.247Z,100.00
2022-09-16T09:11:57.705Z,100.00
2022-09-16T09:14:25.017Z,100.00
2022-09-16T09:16:31.293Z,100.00
2022-09-16T09:18:33.636Z,100.00
2022-09-16T09:21:13.311Z,100.00
2022-09-16T09:23:25.064Z,100.00
2022-09-16T09:25:58.136Z,100.00
2022-09-16T09:28:31.322Z,100.00
2022-09-16T09:30:37.604Z,100.00
2022-09-16T09:32:49.334Z,100.00
2022-09-16T09:35:36.804Z,100.00
2022-09-16T09:37:57.359Z,100.00
2022-09-16T09:40:18.269Z,100.00
2022-09-16T09:42:26.078Z,100.00
2022-09-16T09:44:39.923Z,100.00
2022-09-16T09:46:47.558Z,100.00
2022-09-16T09:49:28.583Z,100.00
2022-09-16T09:51:45.067Z,100.00
2022-09-16T09:53:54.014Z,100.00
2022-09-16T09:56:13.281Z,100.00
2022-09-16T09:58:44.589Z,100.00
2022-09-16T10:00:47.136Z,100.00
2022-09-16T10:02:50.261Z,100.00
2022-09-16T10:04:52.898Z,100.00
2022-09-16T10:06:57.345Z,100.00
2022-09-16T10:09:00.121Z,100.00
2022-09-16T10:21:47.759Z,100.00
2022-09-16T10:25:25.204Z,100.00
2022-09-16T10:27:36.034Z,100.00
2022-09-16T10:29:38.731Z,93.06
2022-09-16T10:31:42.931Z,90.44
2022-09-16T10:33:45.822Z,90.97
2022-09-16T10:35:57.953Z,94.16
2022-09-16T10:38:06.001Z,92.50
2022-09-16T11:06:56.023Z,91.52
2022-09-16T11:09:10.676Z,91.52
2022-09-16T11:11:27.487Z,84.86
2022-09-16T11:14:07.443Z,83.51
2022-09-16T11:16:13.235Z,80.96
2022-09-16T11:18:29.549Z,79.77
2022-09-16T11:20:43.709Z,93.58
2022-09-16T11:22:55.586Z,100.00
2022-09-16T11:25:26.145Z,100.00
2022-09-16T11:27:42.006Z,100.00
2022-09-16T11:30:04.241Z,100.00
2022-09-16T11:32:18.645Z,100.00
2022-09-16T11:34:37.448Z,100.00
2022-09-16T11:37:04.608Z,100.00
2022-09-16T11:39:31.819Z,100.00
2022-09-16T11:41:41.156Z,100.00
2022-09-16T11:44:02.346Z,90.87
2022-09-16T11:46:29.010Z,85.40
2022-09-16T11:48:51.537Z,86.23
2022-09-16T11:51:04.038Z,84.37
2022-09-16T11:53:36.293Z,85.36
2022-09-16T11:55:40.426Z,87.02
2022-09-16T11:57:49.052Z,90.37
2022-09-16T11:59:58.483Z,89.12
2022-09-16T12:02:22.547Z,91.16
2022-09-16T12:04:57.224Z,92.84
2022-09-16T12:07:06.974Z,92.96
2022-09-16T12:09:24.797Z,89.58
2022-09-16T12:11:36.696Z,87.31
2022-09-16T12:45:34.342Z,88.32
2022-09-16T12:47:59.032Z,88.32
2022-09-16T12:50:41.256Z,100.00
2022-09-16T12:53:17.623Z,100.00
2022-09-16T12:55:29.811Z,100.00
2022-09-16T12:58:01.767Z,100.00
2022-09-16T13:00:10.059Z,100.00
2022-09-16T13:02:24.110Z,100.00
2022-09-16T13:04:39.179Z,100.00
2022-09-16T13:06:56.067Z,100.00
2022-09-16T13:09:22.813Z,100.00
2022-09-16T13:12:16.469Z,100.00
2022-09-16T13:13:55.296Z,100.00
2022-09-16T13:16:00.488Z,100.00
2022-09-16T13:18:15.108Z,100.00
2022-09-16T13:20:25.998Z,100.00
2022-09-16T13:22:47.141Z,100.00
2022-09-16T13:25:09.812Z,98.79
2022-09-16T13:27:32.018Z,96.95
2022-09-16T13:29:34.218Z,100.00
2022-09-16T13:31:47.587Z,100.00
2022-09-16T13:34:13.912Z,100.00
2022-09-16T13:36:29.661Z,100.00
2022-09-16T13:38:41.195Z,99.72
2022-09-16T13:40:53.789Z,100.00
2022-09-16T13:43:08.139Z,98.25
2022-09-16T13:45:35.459Z,96.41
2022-09-16T13:47:49.337Z,98.15
2022-09-16T13:49:56.423Z,99.32
2022-09-16T13:51:58.684Z,100.00
2022-09-16T13:54:04.650Z,100.00
2022-09-16T13:56:42.906Z,100.00
2022-09-16T13:59:20.172Z,100.00
2022-09-16T14:01:58.786Z,100.00
2022-09-16T14:04:14.542Z,100.00
2022-09-16T14:06:40.900Z,100.00
2022-09-16T14:57:14.504Z,100.00
2022-09-16T14:59:17.900Z,100.00
2022-09-16T15:01:28.255Z,100.00
2022-09-16T15:03:42.927Z,100.00
2022-09-16T15:05:47.573Z,100.00
2022-09-16T15:08:12.739Z,100.00
2022-09-16T15:10:22.554Z,100.00
2022-09-16T15:13:05.907Z,100.00
2022-09-16T15:15:20.506Z,100.00
2022-09-16T15:17:28.376Z,100.00
2022-09-16T15:19:41.949Z,100.00
2022-09-16T15:21:44.927Z,100.00
2022-09-16T15:23:50.698Z,100.00
2022-09-16T15:25:59.662Z,100.00
2022-09-16T15:28:15.443Z,100.00
2022-09-16T15:30:23.614Z,100.00
2022-09-16T15:32:31.620Z,100.00
2022-09-16T15:34:34.180Z,100.00
2022-09-16T15:36:41.975Z,100.00
2022-09-16T15:38:44.942Z,100.00
2022-09-16T15:40:47.338Z,100.00
2022-09-16T15:43:24.310Z,100.00
2022-09-16T15:45:27.827Z,100.00
2022-09-16T15:47:30.038Z,100.00
2022-09-16T15:49:39.595Z,100.00
2022-09-16T15:51:48.051Z,100.00
2022-09-16T15:53:52.026Z,100.00
2022-09-16T15:56:08.798Z,100.00
2022-09-16T15:58:23.163Z,100.00
2022-09-16T16:00:25.495Z,100.00
2022-09-16T16:02:46.723Z,100.00
2022-09-16T16:04:49.660Z,100.00
2022-09-16T16:06:51.976Z,100.00
2022-09-16T16:08:54.823Z,100.00
2022-09-16T16:11:09.268Z,100.00
2022-09-16T16:13:11.578Z,100.00
2022-09-16T16:15:20.621Z,100.00
2022-09-16T16:17:23.986Z,100.00
2022-09-16T16:19:26.575Z,100.00
2022-09-16T16:21:29.369Z,100.00
2022-09-16T16:23:31.733Z,100.00
2022-09-16T16:25:34.211Z,100.00
2022-09-16T16:27:36.853Z,100.00
2022-09-16T16:29:39.425Z,100.00
2022-09-16T16:31:58.125Z,100.00
2022-09-16T16:34:00.827Z,100.00
2022-09-16T16:36:04.010Z,100.00
2022-09-16T16:38:06.357Z,100.00
2022-09-16T16:40:09.951Z,100.00
2022-09-16T16:42:13.577Z,100.00
2022-09-16T16:44:15.825Z,100.00
2022-09-16T16:46:19.032Z,100.00
2022-09-16T16:48:21.344Z,100.00
2022-09-16T16:50:23.644Z,100.00
2022-09-16T16:52:26.199Z,100.00
2022-09-16T16:54:29.418Z,100.00
2022-09-16T16:56:31.767Z,100.00
2022-09-16T16:58:37.208Z,100.00
2022-09-16T17:00:40.077Z,100.00
2022-09-16T17:02:43.311Z,100.00
2022-09-16T17:04:45.931Z,100.00
2022-09-16T17:06:51.850Z,100.00
2022-09-16T17:09:06.310Z,100.00
2022-09-16T17:11:13.619Z,100.00
2022-09-16T17:13:16.005Z,100.00
2022-09-16T17:15:18.519Z,100.00
2022-09-16T17:17:21.095Z,100.00
2022-09-16T17:19:25.352Z,100.00
2022-09-16T17:21:34.593Z,100.00
2022-09-16T17:23:37.859Z,100.00
2022-09-16T17:25:40.123Z,100.00
2022-09-16T17:27:42.310Z,100.00
2022-09-16T17:29:45.047Z,100.00
2022-09-16T17:31:47.551Z,100.00
2022-09-16T17:33:53.625Z,100.00
2022-09-16T17:36:04.485Z,100.00
2022-09-16T17:38:07.240Z,100.00
2022-09-16T17:40:09.963Z,100.00
2022-09-16T17:42:12.599Z,100.00
2022-09-16T17:44:15.593Z,100.00
2022-09-16T17:46:20.389Z,100.00
2022-09-16T17:48:23.337Z,100.00
2022-09-16T17:50:25.957Z,100.00
2022-09-16T17:52:29.631Z,100.00
2022-09-16T17:54:32.206Z,100.00
2022-09-16T17:56:34.480Z,100.00
2022-09-16T17:58:43.553Z,100.00
2022-09-16T18:00:47.267Z,100.00
2022-09-16T18:02:49.839Z,100.00
2022-09-16T18:04:52.170Z,100.00
2022-09-16T18:06:54.456Z,100.00
2022-09-16T18:09:00.844Z,100.00
2022-09-16T18:11:04.253Z,100.00
2022-09-16T18:13:06.494Z,100.00
2022-09-16T18:15:09.835Z,100.00
2022-09-16T18:17:12.102Z,100.00
2022-09-16T18:19:17.446Z,100.00
2022-09-16T18:21:23.186Z,100.00
2022-09-16T18:23:25.734Z,100.00
2022-09-16T18:25:27.967Z,100.00
2022-09-16T18:27:30.782Z,100.00
2022-09-16T18:29:33.127Z,100.00
2022-09-16T18:31:35.484Z,100.00
2022-09-16T18:33:38.618Z,100.00
2022-09-16T18:35:41.167Z,100.00
2022-09-16T18:37:43.577Z,100.00
2022-09-16T18:39:47.318Z,100.00
2022-09-16T18:41:50.042Z,100.00
2022-09-16T18:44:00.391Z,100.00
2022-09-16T18:46:16.512Z,100.00
2022-09-16T18:48:19.004Z,100.00
2022-09-16T18:50:21.297Z,100.00
2022-09-16T18:52:23.816Z,100.00
2022-09-16T18:54:29.049Z,100.00
2022-09-16T18:56:33.507Z,100.00
2022-09-16T18:58:36.023Z,100.00
2022-09-16T19:00:38.529Z,100.00
2022-09-16T19:02:42.617Z,100.00
2022-09-16T19:04:45.335Z,100.00
2022-09-16T19:06:50.030Z,100.00
2022-09-16T19:08:52.355Z,100.00
2022-09-16T19:10:55.462Z,100.00
2022-09-16T19:12:58.015Z,100.00
2022-09-16T19:15:00.307Z,100.00
2022-09-16T19:17:03.511Z,100.00
2022-09-16T19:19:06.854Z,100.00
2022-09-16T19:21:16.965Z,100.00
2022-09-16T19:23:19.949Z,100.00
2022-09-16T19:25:22.186Z,100.00
2022-09-16T19:27:24.521Z,100.00
2022-09-16T19:29:27.072Z,100.00
2022-09-16T19:31:31.736Z,100.00
2022-09-16T19:33:35.579Z,100.00
2022-09-16T19:35:38.526Z,100.00
2022-09-16T19:37:40.950Z,100.00
2022-09-16T19:39:43.284Z,100.00
2022-09-16T19:41:45.844Z,100.00
2022-09-16T19:43:48.722Z,100.00
2022-09-16T19:45:51.019Z,100.00
2022-09-16T19:47:53.638Z,100.00
2022-09-16T19:49:58.019Z,100.00
2022-09-16T19:52:00.364Z,100.00
2022-09-16T19:54:03.369Z,100.00
2022-09-16T19:56:08.193Z,100.00
2022-09-16T19:58:10.539Z,100.00
2022-09-16T20:00:14.572Z,100.00
2022-09-16T20:02:17.329Z,100.00
2022-09-16T20:04:21.016Z,100.00
2022-09-16T20:06:27.598Z,100.00
2022-09-16T20:08:30.694Z,100.00
2022-09-16T20:10:32.996Z,100.00
2022-09-16T20:12:35.273Z,100.00
2022-09-16T20:14:37.840Z,100.00
2022-09-16T20:16:41.124Z,100.00
2022-09-16T20:18:43.889Z,100.00
2022-09-16T20:20:49.275Z,100.00
2022-09-16T20:22:52.365Z,100.00
2022-09-16T20:25:12.406Z,100.00
2022-09-16T20:27:17.295Z,100.00
2022-09-16T20:29:20.690Z,100.00
2022-09-16T20:31:25.560Z,100.00
2022-09-16T20:33:33.136Z,100.00
2022-09-16T20:35:36.213Z,100.00
2022-09-16T20:37:38.493Z,100.00
2022-09-16T20:39:41.850Z,100.00
2022-09-16T20:41:49.710Z,100.00
2022-09-16T20:43:52.604Z,100.00
2022-09-16T20:45:55.215Z,100.00
2022-09-16T20:47:57.502Z,100.00
2022-09-16T20:49:59.802Z,100.00
2022-09-16T20:52:02.487Z,100.00
2022-09-16T20:54:08.499Z,100.00
2022-09-16T20:56:13.946Z,100.00
2022-09-16T20:58:16.492Z,100.00
2022-09-16T21:00:18.824Z,100.00
2022-09-16T21:02:21.230Z,100.00
2022-09-16T21:04:23.924Z,100.00
2022-09-16T21:06:28.129Z,100.00
2022-09-16T21:08:33.877Z,100.00
2022-09-16T21:10:38.707Z,100.00
2022-09-16T21:12:40.952Z,100.00
2022-09-16T21:14:43.440Z,100.00
2022-09-16T21:16:46.973Z,100.00
2022-09-16T21:18:57.099Z,100.00
2022-09-16T21:21:03.224Z,100.00
2022-09-16T21:23:05.853Z,100.00
2022-09-16T21:25:08.450Z,100.00
2022-09-16T21:27:10.690Z,100.00
2022-09-16T21:29:16.128Z,100.00
2022-09-16T21:31:18.934Z,100.00
2022-09-16T21:33:21.327Z,100.00
2022-09-16T21:35:24.073Z,100.00
2022-09-16T21:37:26.352Z,100.00
2022-09-16T21:39:28.866Z,100.00
2022-09-16T21:41:31.478Z,100.00
2022-09-16T21:43:38.747Z,100.00
2022-09-16T21:45:44.879Z,100.00
2022-09-16T21:47:48.926Z,100.00
2022-09-16T21:49:52.297Z,100.00
2022-09-16T21:51:57.268Z,100.00
2022-09-16T21:53:59.798Z,100.00
2022-09-16T21:56:07.006Z,100.00
2022-09-16T21:58:09.690Z,100.00
2022-09-16T22:00:12.935Z,100.00
2022-09-16T22:02:16.089Z,100.00
2022-09-16T22:04:23.590Z,100.00
2022-09-16T22:06:26.467Z,100.00
2022-09-16T22:08:29.075Z,100.00
2022-09-16T22:10:31.443Z,100.00
2022-09-16T22:12:33.721Z,100.00
2022-09-16T22:14:36.686Z,100.00
2022-09-16T22:16:39.587Z,100.00
2022-09-16T22:18:41.766Z,100.00
2022-09-16T22:20:44.403Z,100.00
2022-09-16T22:22:46.745Z,100.00
2022-09-16T22:24:49.065Z,100.00
2022-09-16T22:26:52.101Z,100.00
